Time,TemperatureF,DewpointF,PressureIn,WindDirection,WindDirectionDegrees,WindSpeedMPH,WindSpeedGustMPH,Humidity,HourlyPrecipIn,Conditions,Clouds,dailyrainin,SoftwareType,DateUTC
2013-02-06 00:01:00,29.0,22.0,-100.00,NNE,30,8.0,12.0,75,-99.99,,,-99.99,,2013-02-06 06:01:00,
2013-02-06 00:11:00,29.0,23.0,-100.00,NNE,25,7.0,10.0,77,-99.99,,,-99.99,,2013-02-06 06:11:00,
2013-02-06 00:21:00,29.0,23.0,-100.00,NNE,25,5.0,7.0,78,-99.99,,,-99.99,,2013-02-06 06:21:00,
2013-02-06 00:32:00,29.0,23.0,-100.00,NNE,25,4.0,6.0,79,-99.99,,,-99.99,,2013-02-06 06:32:00,
2013-02-06 00:42:00,29.0,23.0,-100.00,NNE,25,4.0,6.0,79,-99.99,,,-99.99,,2013-02-06 06:42:00,
2013-02-06 00:52:00,28.0,23.0,-100.00,NNE,20,4.0,6.0,80,-99.99,,,-99.99,,2013-02-06 06:52:00,
2013-02-06 01:01:00,28.0,23.0,-100.00,NNE,20,4.0,6.0,80,-99.99,,,-99.99,,2013-02-06 07:01:00,
2013-02-06 01:11:00,28.0,23.0,-100.00,NNE,25,4.0,6.0,80,-99.99,,,-99.99,,2013-02-06 07:11:00,
2013-02-06 01:22:00,28.0,23.0,-100.00,NNE,20,2.0,5.0,81,-99.99,,,-99.99,,2013-02-06 07:22:00,
2013-02-06 01:32:00,28.0,23.0,-100.00,NNE,20,2.0,5.0,81,-99.99,,,-99.99,,2013-02-06 07:32:00,
2013-02-06 01:42:00,28.0,23.0,-100.00,NNE,20,6.0,6.0,82,-99.99,,,-99.99,,2013-02-06 07:42:00,
2013-02-06 01:52:00,27.0,22.0,-100.00,NNE,25,6.0,8.0,83,-99.99,,,-99.99,,2013-02-06 07:52:00,
2013-02-06 02:01:00,27.0,22.0,-100.00,NNE,25,6.0,8.0,83,-99.99,,,-99.99,,2013-02-06 08:01:00,
2013-02-06 02:11:00,26.0,21.0,-100.00,NNE,15,7.0,8.0,83,-99.99,,,-99.99,,2013-02-06 08:11:00,
2013-02-06 02:21:00,25.0,21.0,-100.00,NNE,25,6.0,8.0,83,-99.99,,,-99.99,,2013-02-06 08:21:00,
2013-02-06 02:31:00,25.0,21.0,-100.00,NNE,25,6.0,8.0,83,-99.99,,,-99.99,,2013-02-06 08:31:00,
2013-02-06 02:42:00,24.0,20.0,-100.00,NNE,30,6.0,8.0,83,-99.99,,,-99.99,,2013-02-06 08:42:00,
2013-02-06 02:53:00,24.0,20.0,-100.00,NE,35,7.0,9.0,84,-99.99,,,-99.99,,2013-02-06 08:53:00,
2013-02-06 03:01:00,24.0,20.0,-100.00,NE,35,7.0,9.0,84,-99.99,,,-99.99,,2013-02-06 09:01:00,
2013-02-06 03:11:00,25.0,20.0,-100.00,North,0,5.0,9.0,83,-99.99,,,-99.99,,2013-02-06 09:11:00,
2013-02-06 03:21:00,25.0,20.0,-100.00,North,0,5.0,7.0,81,-99.99,,,-99.99,,2013-02-06 09:21:00,
2013-02-06 03:31:00,25.0,20.0,-100.00,North,0,5.0,7.0,81,-99.99,,,-99.99,,2013-02-06 09:31:00,
2013-02-06 03:41:00,25.0,19.0,-100.00,North,0,6.0,8.0,78,-99.99,,,-99.99,,2013-02-06 09:41:00,
2013-02-06 03:52:00,25.0,19.0,-100.00,North,0,5.0,9.0,79,-99.99,,,-99.99,,2013-02-06 09:52:00,
2013-02-06 04:01:00,25.0,19.0,-100.00,North,0,5.0,9.0,79,-99.99,,,-99.99,,2013-02-06 10:01:00,
2013-02-06 04:11:00,24.0,19.0,-100.00,North,0,6.0,8.0,79,-99.99,,,-99.99,,2013-02-06 10:11:00,
2013-02-06 04:21:00,23.0,18.0,-100.00,North,5,7.0,9.0,80,-99.99,,,-99.99,,2013-02-06 10:21:00,
2013-02-06 04:31:00,23.0,18.0,-100.00,North,5,7.0,9.0,80,-99.99,,,-99.99,,2013-02-06 10:31:00,
2013-02-06 04:42:00,22.0,17.0,-100.00,North,5,7.0,9.0,81,-99.99,,,-99.99,,2013-02-06 10:42:00,
2013-02-06 04:52:00,21.0,16.0,-100.00,North,5,8.0,9.0,82,-99.99,,,-99.99,,2013-02-06 10:52:00,
2013-02-06 05:01:00,21.0,16.0,-100.00,North,5,8.0,9.0,82,-99.99,,,-99.99,,2013-02-06 11:01:00,
2013-02-06 05:11:00,20.0,16.0,-100.00,North,5,9.0,11.0,83,-99.99,,,-99.99,,2013-02-06 11:11:00,
2013-02-06 05:22:00,20.0,15.0,-100.00,North,5,11.0,14.0,82,-99.99,,,-99.99,,2013-02-06 11:22:00,
2013-02-06 05:32:00,20.0,15.0,-100.00,North,5,11.0,14.0,82,-99.99,,,-99.99,,2013-02-06 11:32:00,
2013-02-06 05:42:00,18.0,14.0,-100.00,North,5,11.0,13.0,82,-99.99,,,-99.99,,2013-02-06 11:42:00,
2013-02-06 05:53:00,18.0,14.0,-100.00,North,5,10.0,12.0,82,-99.99,,,-99.99,,2013-02-06 11:53:00,
2013-02-06 06:02:00,18.0,14.0,-100.00,North,5,10.0,12.0,82,-99.99,,,-99.99,,2013-02-06 12:02:00,
2013-02-06 06:12:00,18.0,13.0,-100.00,North,5,11.0,13.0,81,-99.99,,,-99.99,,2013-02-06 12:12:00,
2013-02-06 06:22:00,18.0,13.0,-100.00,North,10,10.0,13.0,82,-99.99,,,-99.99,,2013-02-06 12:22:00,
2013-02-06 06:30:00,18.0,13.0,-100.00,North,10,11.0,13.0,83,-99.99,,,-99.99,,2013-02-06 12:30:00,
2013-02-06 06:32:00,18.0,13.0,-100.00,North,10,10.0,13.0,82,-99.99,,,-99.99,,2013-02-06 12:32:00,
2013-02-06 06:42:00,17.0,13.0,-100.00,North,5,11.0,12.0,82,-99.99,,,-99.99,,2013-02-06 12:42:00,
2013-02-06 06:52:00,18.0,13.0,-100.00,North,10,11.0,12.0,83,-99.99,,,-99.99,,2013-02-06 12:52:00,
2013-02-06 07:01:00,18.0,13.0,-100.00,North,10,11.0,12.0,83,-99.99,,,-99.99,,2013-02-06 13:01:00,
2013-02-06 07:12:00,18.0,13.0,-100.00,North,10,11.0,13.0,83,-99.99,,,-99.99,,2013-02-06 13:12:00,
2013-02-06 07:22:00,18.0,13.0,-100.00,North,10,11.0,13.0,83,-99.99,,,-99.99,,2013-02-06 13:22:00,
2013-02-06 08:32:00,18.0,15.0,-100.00,North,10,4.0,6.0,85,-99.99,,,-99.99,,2013-02-06 14:32:00,
2013-02-06 08:42:00,18.0,15.0,-100.00,North,10,4.0,6.0,85,-99.99,,,-99.99,,2013-02-06 14:42:00,
2013-02-06 08:52:00,21.0,18.0,-100.00,North,10,0.0,1.0,85,-99.99,,,-99.99,,2013-02-06 14:52:00,
2013-02-06 09:01:00,21.0,18.0,-100.00,North,10,0.0,1.0,85,-99.99,,,-99.99,,2013-02-06 15:01:00,
2013-02-06 09:11:00,22.0,18.0,-100.00,North,10,8.0,10.0,81,-99.99,,,-99.99,,2013-02-06 15:11:00,
2013-02-06 09:21:00,24.0,18.0,-100.00,North,10,9.0,14.0,77,-99.99,,,-99.99,,2013-02-06 15:21:00,
2013-02-06 09:31:00,25.0,18.0,-100.00,North,10,11.0,13.0,73,-99.99,,,-99.99,,2013-02-06 15:31:00,
2013-02-06 09:42:00,25.0,18.0,-100.00,North,10,11.0,13.0,73,-99.99,,,-99.99,,2013-02-06 15:42:00,
2013-02-06 09:52:00,26.0,19.0,-100.00,North,10,11.0,14.0,72,-99.99,,,-99.99,,2013-02-06 15:52:00,
2013-02-06 10:01:00,26.0,19.0,-100.00,North,10,11.0,14.0,72,-99.99,,,-99.99,,2013-02-06 16:01:00,
2013-02-06 10:11:00,26.0,19.0,-100.00,NNE,15,9.0,15.0,73,-99.99,,,-99.99,,2013-02-06 16:11:00,
2013-02-06 10:21:00,27.0,19.0,-100.00,NNE,15,9.0,13.0,73,-99.99,,,-99.99,,2013-02-06 16:21:00,
2013-02-06 10:32:00,27.0,19.0,-100.00,NNE,15,9.0,13.0,73,-99.99,,,-99.99,,2013-02-06 16:32:00,
2013-02-06 10:42:00,27.0,20.0,-100.00,NNE,15,12.0,15.0,75,-99.99,,,-99.99,,2013-02-06 16:42:00,
2013-02-06 10:52:00,29.0,22.0,-100.00,NNE,15,7.0,11.0,74,-99.99,,,-99.99,,2013-02-06 16:52:00,
2013-02-06 11:02:00,29.0,22.0,-100.00,NNE,15,7.0,11.0,74,-99.99,,,-99.99,,2013-02-06 17:02:00,
2013-02-06 11:11:00,30.0,22.0,-100.00,North,10,9.0,11.0,73,-99.99,,,-99.99,,2013-02-06 17:11:00,
2013-02-06 11:21:00,32.0,24.0,-100.00,NNE,15,11.0,14.0,72,-99.99,,,-99.99,,2013-02-06 17:21:00,
2013-02-06 11:32:00,32.0,24.0,-100.00,NNE,15,11.0,14.0,72,-99.99,,,-99.99,,2013-02-06 17:32:00,
2013-02-06 11:42:00,32.0,23.0,-100.00,NNE,15,13.0,16.0,70,-99.99,,,-99.99,,2013-02-06 17:42:00,
2013-02-06 11:52:00,32.0,24.0,-100.00,NNE,15,14.0,17.0,70,-99.99,,,-99.99,,2013-02-06 17:52:00,
2013-02-06 12:01:00,32.0,24.0,-100.00,NNE,15,14.0,17.0,70,-99.99,,,-99.99,,2013-02-06 18:01:00,
2013-02-06 12:11:00,33.0,24.0,-100.00,NNE,15,11.0,16.0,68,-99.99,,,-99.99,,2013-02-06 18:11:00,
2013-02-06 12:23:00,33.0,24.0,-100.00,NNE,15,13.0,18.0,67,-99.99,,,-99.99,,2013-02-06 18:23:00,
2013-02-06 12:32:00,33.0,24.0,-100.00,NNE,15,13.0,18.0,67,-99.99,,,-99.99,,2013-02-06 18:32:00,
2013-02-06 12:42:00,34.0,24.0,-100.00,NNE,15,13.0,16.0,67,-99.99,,,-99.99,,2013-02-06 18:42:00,
2013-02-06 12:52:00,35.0,25.0,-100.00,NNE,15,9.0,16.0,65,-99.99,,,-99.99,,2013-02-06 18:52:00,
2013-02-06 13:01:00,35.0,25.0,-100.00,NNE,15,9.0,16.0,65,-99.99,,,-99.99,,2013-02-06 19:01:00,
2013-02-06 13:11:00,36.0,25.0,-100.00,NNE,15,11.0,14.0,64,-99.99,,,-99.99,,2013-02-06 19:11:00,
2013-02-06 13:21:00,37.0,26.0,-100.00,NNE,15,9.0,15.0,64,-99.99,,,-99.99,,2013-02-06 19:21:00,
2013-02-06 13:32:00,37.0,26.0,-100.00,NNE,15,9.0,15.0,64,-99.99,,,-99.99,,2013-02-06 19:32:00,
2013-02-06 13:42:00,38.0,25.0,-100.00,NNE,20,11.0,16.0,61,-99.99,,,-99.99,,2013-02-06 19:42:00,
2013-02-06 13:52:00,37.0,26.0,-100.00,NNE,15,6.0,11.0,64,-99.99,,,-99.99,,2013-02-06 19:52:00,
2013-02-06 14:01:00,37.0,26.0,-100.00,NNE,15,6.0,11.0,64,-99.99,,,-99.99,,2013-02-06 20:01:00,
2013-02-06 14:11:00,38.0,27.0,-100.00,NNE,20,9.0,14.0,62,-99.99,,,-99.99,,2013-02-06 20:11:00,
2013-02-06 14:21:00,39.0,27.0,-100.00,NNE,20,9.0,13.0,62,-99.99,,,-99.99,,2013-02-06 20:21:00,
2013-02-06 14:32:00,39.0,27.0,-100.00,NNE,20,9.0,13.0,62,-99.99,,,-99.99,,2013-02-06 20:32:00,
2013-02-06 14:42:00,39.0,27.0,-100.00,NNE,20,7.0,14.0,61,-99.99,,,-99.99,,2013-02-06 20:42:00,
2013-02-06 14:52:00,38.0,27.0,-100.00,NNE,20,11.0,15.0,62,-99.99,,,-99.99,,2013-02-06 20:52:00,
2013-02-06 15:02:00,38.0,27.0,-100.00,NNE,20,11.0,15.0,62,-99.99,,,-99.99,,2013-02-06 21:02:00,
2013-02-06 15:11:00,38.0,27.0,-100.00,NNE,20,8.0,12.0,64,-99.99,,,-99.99,,2013-02-06 21:11:00,
2013-02-06 15:21:00,39.0,27.0,-100.00,NNE,20,11.0,14.0,62,-99.99,,,-99.99,,2013-02-06 21:21:00,
2013-02-06 15:32:00,39.0,27.0,-100.00,NNE,20,11.0,14.0,62,-99.99,,,-99.99,,2013-02-06 21:32:00,
2013-02-06 15:42:00,39.0,27.0,-100.00,NNE,15,9.0,12.0,61,-99.99,,,-99.99,,2013-02-06 21:42:00,
2013-02-06 15:52:00,40.0,28.0,-100.00,NNE,15,8.0,13.0,61,-99.99,,,-99.99,,2013-02-06 21:52:00,
2013-02-06 16:01:00,40.0,28.0,-100.00,NNE,15,8.0,13.0,61,-99.99,,,-99.99,,2013-02-06 22:01:00,
2013-02-06 16:11:00,41.0,28.0,-100.00,NNE,15,7.0,11.0,60,-99.99,,,-99.99,,2013-02-06 22:11:00,
2013-02-06 16:21:00,40.0,27.0,-100.00,NNE,15,6.0,13.0,61,-99.99,,,-99.99,,2013-02-06 22:21:00,
2013-02-06 16:31:00,40.0,27.0,-100.00,NNE,15,6.0,13.0,61,-99.99,,,-99.99,,2013-02-06 22:31:00,
2013-02-06 16:42:00,38.0,28.0,-100.00,North,10,8.0,11.0,67,-99.99,,,-99.99,,2013-02-06 22:42:00,
2013-02-06 16:52:00,38.0,30.0,-100.00,North,10,8.0,9.0,72,-99.99,,,-99.99,,2013-02-06 22:52:00,
2013-02-06 17:01:00,38.0,30.0,-100.00,North,10,8.0,9.0,72,-99.99,,,-99.99,,2013-02-06 23:01:00,
2013-02-06 17:11:00,38.0,30.0,-100.00,North,10,10.0,11.0,74,-99.99,,,-99.99,,2013-02-06 23:11:00,
2013-02-06 17:21:00,37.0,31.0,-100.00,North,10,7.0,11.0,77,-99.99,,,-99.99,,2013-02-06 23:21:00,
2013-02-06 17:32:00,37.0,31.0,-100.00,North,10,7.0,11.0,77,-99.99,,,-99.99,,2013-02-06 23:32:00,
2013-02-06 17:42:00,36.0,31.0,-100.00,North,10,10.0,13.0,81,-99.99,,,-99.99,,2013-02-06 23:42:00,
2013-02-06 17:52:00,35.0,31.0,-100.00,North,10,10.0,11.0,84,-99.99,,,-99.99,,2013-02-06 23:52:00,
2013-02-06 18:01:00,35.0,31.0,-100.00,North,10,10.0,11.0,84,-99.99,,,-99.99,,2013-02-07 00:01:00,
2013-02-06 18:11:00,35.0,31.0,-100.00,North,10,11.0,14.0,86,-99.99,,,-99.99,,2013-02-07 00:11:00,
2013-02-06 18:21:00,35.0,31.0,-100.00,North,10,11.0,14.0,87,-99.99,,,-99.99,,2013-02-07 00:21:00,
2013-02-06 18:32:00,35.0,31.0,-100.00,North,10,11.0,14.0,87,-99.99,,,-99.99,,2013-02-07 00:32:00,
2013-02-06 18:42:00,34.0,31.0,-100.00,North,10,13.0,14.0,88,-99.99,,,-99.99,,2013-02-07 00:42:00,
2013-02-06 18:52:00,34.0,31.0,-100.00,North,10,13.0,16.0,89,-99.99,,,-99.99,,2013-02-07 00:52:00,
2013-02-06 19:01:00,34.0,31.0,-100.00,North,10,13.0,16.0,89,-99.99,,,-99.99,,2013-02-07 01:01:00,
2013-02-06 19:11:00,34.0,31.0,-100.00,North,10,11.0,14.0,89,-99.99,,,-99.99,,2013-02-07 01:11:00,
2013-02-06 19:21:00,34.0,31.0,-100.00,North,10,11.0,14.0,89,-99.99,,,-99.99,,2013-02-07 01:21:00,
2013-02-06 19:32:00,34.0,31.0,-100.00,North,10,11.0,14.0,89,-99.99,,,-99.99,,2013-02-07 01:32:00,
2013-02-06 19:41:00,34.0,31.0,-100.00,North,10,10.0,13.0,89,-99.99,,,-99.99,,2013-02-07 01:41:00,
2013-02-06 19:52:00,34.0,31.0,-100.00,North,10,10.0,13.0,89,-99.99,,,-99.99,,2013-02-07 01:52:00,
2013-02-06 20:01:00,34.0,31.0,-100.00,North,10,10.0,13.0,89,-99.99,,,-99.99,,2013-02-07 02:01:00,
2013-02-06 20:11:00,34.0,31.0,-100.00,NNE,15,10.0,14.0,90,-99.99,,,-99.99,,2013-02-07 02:11:00,
2013-02-06 20:21:00,34.0,31.0,-100.00,North,10,13.0,14.0,90,-99.99,,,-99.99,,2013-02-07 02:21:00,
2013-02-06 20:32:00,34.0,31.0,-100.00,North,10,13.0,14.0,90,-99.99,,,-99.99,,2013-02-07 02:32:00,
2013-02-06 20:41:00,34.0,31.0,-100.00,North,10,13.0,14.0,90,-99.99,,,-99.99,,2013-02-07 02:41:00,
2013-02-06 21:02:00,34.0,31.0,-100.00,North,5,14.0,19.0,90,-99.99,,,-99.99,,2013-02-07 03:02:00,
2013-02-06 21:11:00,34.0,31.0,-100.00,North,10,14.0,17.0,90,-99.99,,,-99.99,,2013-02-07 03:11:00,
2013-02-06 21:21:00,34.0,31.0,-100.00,North,10,14.0,18.0,91,-99.99,,,-99.99,,2013-02-07 03:21:00,
2013-02-06 21:31:00,34.0,31.0,-100.00,North,10,14.0,18.0,91,-99.99,,,-99.99,,2013-02-07 03:31:00,
2013-02-06 21:42:00,34.0,31.0,-100.00,North,10,13.0,19.0,91,-99.99,,,-99.99,,2013-02-07 03:42:00,
2013-02-06 21:52:00,34.0,31.0,-100.00,North,5,14.0,17.0,91,-99.99,,,-99.99,,2013-02-07 03:52:00,
2013-02-06 22:01:00,34.0,31.0,-100.00,North,5,14.0,17.0,91,-99.99,,,-99.99,,2013-02-07 04:01:00,
2013-02-06 22:11:00,34.0,32.0,-100.00,North,10,16.0,19.0,92,-99.99,,,-99.99,,2013-02-07 04:11:00,
2013-02-06 22:22:00,34.0,32.0,-100.00,North,5,18.0,21.0,92,-99.99,,,-99.99,,2013-02-07 04:22:00,
2013-02-06 22:32:00,34.0,32.0,-100.00,North,5,18.0,21.0,92,-99.99,,,-99.99,,2013-02-07 04:32:00,
2013-02-06 22:41:00,34.0,32.0,-100.00,North,5,16.0,20.0,92,-99.99,,,-99.99,,2013-02-07 04:41:00,
2013-02-06 22:53:00,33.0,31.0,-100.00,North,5,13.0,19.0,92,-99.99,,,-99.99,,2013-02-07 04:53:00,
2013-02-06 23:02:00,33.0,31.0,-100.00,North,5,13.0,19.0,92,-99.99,,,-99.99,,2013-02-07 05:02:00,
2013-02-06 23:11:00,33.0,31.0,-100.00,North,10,14.0,18.0,93,-99.99,,,-99.99,,2013-02-07 05:11:00,
2013-02-06 23:21:00,33.0,31.0,-100.00,North,10,19.0,24.0,93,-99.99,,,-99.99,,2013-02-07 05:21:00,
2013-02-06 23:32:00,33.0,31.0,-100.00,North,10,19.0,24.0,93,-99.99,,,-99.99,,2013-02-07 05:32:00,
2013-02-06 23:42:00,33.0,31.0,-100.00,North,10,19.0,24.0,93,-99.99,,,-99.99,,2013-02-07 05:42:00,
2013-02-06 23:52:00,33.0,31.0,-100.00,North,10,16.0,23.0,93,-99.99,,,-99.99,,2013-02-07 05:52:00,